Latest Weather Observations for Thredbo Top Station

IDN60901

Issued at 5:41 pm EDT Saturday 25 February 2017 (issued every 10 minutes, with the page automatically refreshed every 10 minutes)

About weather observations | Map of Canberra area stations | Latest observations for Canberra area | Other Formats
Station Details ID: 071032 Name: THREDBO AWS Lat: -36.49 Lon: 148.29 Height: 1957.0 m
Data from the previous 72 hours. | See also: Recent months at Thredbo Top Station
Date/Time
EDT
Temp
°C
App
Temp
°C
Dew
Point
°C
Rel
Hum
%
Delta-T
°C
Wind Press
QNH
hPa
Press
MSL
hPa
Rain since
9am
mm
Dir  Spd
km/h
Gust
km/h
Spd
kts
Gust
kts
25/05:30pm 7.4 3.9 7.3 99 0.1 E 15 24 8 13 1025.8 1017.1 0.0
25/05:00pm 7.5 4.4 7.4 99 0.1 ENE 13 19 7 10 1025.7 1017.0 0.0
25/04:30pm 7.8 5.6 7.7 99 0.1 E 9 15 5 8 1025.8 1017.1 0.0
25/04:00pm 7.4 5.1 7.3 99 0.1 E 9 17 5 9 1025.9 1017.2 0.0
25/03:30pm 7.3 4.9 7.2 99 0.1 E 9 13 5 7 1026.0 1017.4 0.0
25/03:00pm 7.3 4.9 7.2 99 0.1 E 9 15 5 8 1026.3 1017.6 0.0
25/02:30pm 7.4 4.7 7.3 99 0.1 ENE 11 19 6 10 1026.4 1017.7 0.0
25/02:00pm 7.5 5.2 7.4 99 0.1 E 9 15 5 8 1026.5 1017.9 0.0
25/01:30pm 7.4 5.6 7.3 99 0.1 ENE 6 9 3 5 1026.5 1017.9 0.0
25/01:00pm 7.2 5.4 7.1 99 0.1 ESE 6 11 3 6 1026.7 1018.0 0.0
25/12:30pm 7.8 5.9 7.7 99 0.1 E 7 13 4 7 1026.7 1018.0 0.0
25/12:00pm 7.4 6.0 7.3 99 0.1 E 4 7 2 4 1026.7 1018.0 0.0
25/11:30am 6.8 5.3 6.7 99 0.1 ESE 4 7 2 4 1026.7 1018.0 0.0
25/11:00am 7.9 6.3 7.8 99 0.1 ENE 6 11 3 6 1026.7 1018.0 0.0
25/10:30am 7.9 6.6 7.8 99 0.1 SE 4 9 2 5 1026.5 1017.9 0.0
25/10:00am 9.4 6.8 9.3 99 0.1 NNE 13 20 7 11 1026.2 1017.5 0.0
25/09:30am 7.9 6.6 7.8 99 0.1 ESE 4 7 2 4 1026.0 1017.4 0.0
25/09:00am 7.4 6.0 7.3 99 0.1 E 4 9 2 5 1026.0 1017.4 0.2
25/08:30am 6.8 4.9 6.7 99 0.1 NNE 6 7 3 4 1025.8 1017.1 0.2
25/08:00am 5.7 4.3 5.6 99 0.0 E 2 6 1 3 1025.7 1017.0 0.2
25/07:30am 5.5 4.1 5.4 99 0.0 E 2 9 1 5 1025.6 1016.9 0.2
25/07:00am 5.4 2.2 5.3 99 0.0 NNW 11 13 6 7 1025.3 1016.6 0.2
25/06:30am 6.4 3.5 6.3 99 0.1 WNW 11 13 6 7 1025.2 1016.5 0.2
25/06:00am 5.5 4.1 5.4 99 0.0 S 2 4 1 2 1025.0 1016.2 0.2
25/05:30am 6.0 3.4 5.9 99 0.1 NNW 9 11 5 6 1024.8 1016.1 0.2
25/05:00am 5.2 1.6 5.1 99 0.0 NNW 13 17 7 9 1024.8 1016.1 0.2
25/04:30am 6.3 1.8 6.2 99 0.1 NNW 19 22 10 12 1025.0 1016.2 0.0
25/04:00am 6.7 1.7 6.6 99 0.1 NNW 22 24 12 13 1024.8 1016.1 0.0
25/03:30am 6.9 2.4 6.8 99 0.1 NNW 20 24 11 13 1025.1 1016.4 0.0
25/03:00am 7.0 3.1 6.9 99 0.1 NNW 17 22 9 12 1025.2 1016.5 0.0
25/02:30am 7.3 4.2 7.2 99 0.1 NNE 13 19 7 10 1025.6 1016.9 0.0
25/02:00am 7.5 4.4 7.4 99 0.1 NNE 13 19 7 10 1026.0 1017.4 0.0
25/01:30am 7.5 4.4 7.4 99 0.1 NNE 13 17 7 9 1026.4 1017.7 0.0
25/01:00am 7.5 4.8 7.4 99 0.1 NE 11 20 6 11 1026.7 1018.0 0.0
25/12:30am 7.8 5.2 7.7 99 0.1 NNE 11 17 6 9 1026.9 1018.3 0.0
25/12:00am 7.8 5.2 7.7 99 0.1 NE 11 19 6 10 1027.1 1018.5 0.0
 
Date/Time
EDT
Temp
°C
App
Temp
°C
Dew
Point
°C
Rel
Hum
%
Delta-T
°C
Wind Press
QNH
hPa
Press
MSL
hPa
Rain since
9am
mm
Dir  Spd
km/h
Gust
km/h
Spd
kts
Gust
kts
24/11:30pm 8.0 6.2 7.9 99 0.1 NE 7 15 4 8 1027.5 1018.9 0.0
24/11:00pm 8.1 5.6 8.0 99 0.1 N 11 20 6 11 1027.6 1019.0 0.0
24/10:30pm 8.1 4.8 8.0 99 0.1 N 15 20 8 11 1027.6 1019.0 0.0
24/10:00pm 8.6 6.9 8.5 99 0.1 NE 7 11 4 6 1027.9 1019.3 0.0
24/09:30pm 8.9 6.5 8.8 99 0.1 NE 11 15 6 8 1028.0 1019.4 0.0
24/09:00pm 8.9 6.5 8.8 99 0.1 ENE 11 17 6 9 1027.7 1019.1 0.0
24/08:30pm 9.3 7.1 9.2 99 0.1 ENE 11 19 6 10 1027.6 1019.0 0.0
24/08:00pm 10.1 8.4 10.0 99 0.1 E 9 17 5 9 1027.5 1018.9 0.0
24/07:30pm 11.3 10.0 9.9 91 0.8 ESE 7 11 4 6 1027.4 1018.8 0.0
24/07:00pm 12.3 8.8 8.8 79 1.9 NE 17 32 9 17 1026.9 1018.3 0.0
24/06:30pm 15.8 11.3 1.9 39 6.9 NNW 15 20 8 11 1026.8 1018.1 0.0
24/06:00pm 16.4 12.3 2.4 39 7.0 WNW 13 22 7 12 1026.8 1018.1 0.0
24/05:30pm 17.0 12.4 3.7 41 6.9 WNW 17 24 9 13 1026.7 1018.0 0.0
24/05:00pm 16.6 11.5 3.3 41 6.8 WNW 19 30 10 16 1026.7 1018.0 0.0
24/04:30pm 16.6 12.1 4.3 44 6.4 W 17 30 9 16 1026.8 1018.1 0.0
24/04:00pm 17.0 12.4 5.6 47 6.1 WNW 19 30 10 16 1026.8 1018.1 0.0
24/03:30pm 17.3 13.3 4.9 44 6.6 NW 15 30 8 16 1027.0 1018.4 0.0
24/03:00pm 17.0 11.4 0.2 32 8.1 NW 19 28 10 15 1027.1 1018.5 0.0
24/02:30pm 17.2 12.1 0.8 33 8.0 NW 17 28 9 15 1027.4 1018.8 0.0
24/02:00pm 17.1 10.8 -3.6 24 9.2 NW 20 32 11 17 1027.6 1019.0 0.0
24/01:30pm 16.6 10.3 -4.0 24 9.1 NW 20 30 11 16 1027.7 1019.1 0.0
24/01:00pm 16.2 9.6 -3.3 26 8.7 NNW 22 33 12 18 1027.6 1019.0 0.0
24/12:30pm 16.4 9.2 -1.7 29 8.4 NNW 26 33 14 18 1027.6 1019.0 0.0
24/12:00pm 16.2 8.3 -1.8 29 8.2 NNW 30 44 16 24 1027.7 1019.1 0.0
24/11:30am 16.1 7.5 -7.5 19 9.7 NNW 30 39 16 21 1027.6 1019.0 0.0
24/11:00am 15.5 6.9 0.5 36 7.2 NNW 35 44 19 24 1027.4 1018.8 0.0
24/10:30am 15.0 6.3 2.2 42 6.3 NNW 37 43 20 23 1027.3 1018.6 0.0
24/10:00am 14.5 5.5 2.7 45 5.9 NNW 39 48 21 26 1027.1 1018.5 0.0
24/09:30am 14.4 5.9 2.9 46 5.8 NNW 37 44 20 24 1026.9 1018.3 0.0
24/09:00am 14.0 6.0 3.8 50 5.2 NNW 35 43 19 23 1026.9 1018.3 0.0
24/08:30am 14.2 6.3 2.1 44 5.9 NNW 33 43 18 23 1026.8 1018.1 0.0
24/08:00am 14.0 5.6 1.3 42 6.1 NNW 35 43 19 23 1026.4 1017.7 0.0
24/07:30am 13.7 5.7 0.7 41 6.2 NNW 32 41 17 22 1026.5 1017.9 0.0
24/07:00am 12.7 5.1 0.8 44 5.6 NNW 30 41 16 22 1026.3 1017.6 0.0
24/06:30am 13.0 5.1 1.0 44 5.7 NNW 32 41 17 22 1026.2 1017.5 0.0
24/06:00am 13.1 5.6 1.1 44 5.7 NNW 30 37 16 20 1026.0 1017.4 0.0
24/05:30am 13.3 5.8 1.0 43 5.9 NW 30 35 16 19 1026.2 1017.5 0.0
24/05:00am 13.5 6.0 -1.3 36 6.7 NNW 28 35 15 19 1026.0 1017.4 0.0
24/04:30am 13.2 6.3 -0.1 40 6.2 NNW 26 32 14 17 1026.2 1017.5 0.0
24/04:00am 13.4 6.5 0.1 40 6.2 NNW 26 33 14 18 1026.2 1017.5 0.0
24/03:30am 13.8 6.5 -0.3 38 6.6 NNW 28 37 15 20 1026.3 1017.6 0.0
24/03:00am 12.0 5.2 0.8 46 5.2 NNW 26 33 14 18 1026.7 1018.0 0.0
24/02:30am 12.3 6.3 1.3 47 5.2 NNW 22 28 12 15 1027.0 1018.4 0.0
24/02:00am 13.9 7.5 0.9 41 6.2 NW 24 32 13 17 1027.1 1018.5 0.0
24/01:30am 13.5 7.5 0.9 42 6.0 NW 22 30 12 16 1027.6 1019.0 0.0
24/01:00am 11.9 6.3 1.5 49 4.9 NNW 20 28 11 15 1027.7 1019.1 0.0
24/12:30am 12.5 6.2 1.5 47 5.3 NNW 24 26 13 14 1027.7 1019.1 0.0
24/12:00am 12.4 6.4 1.1 46 5.3 NNW 22 28 12 15 1028.0 1019.4 0.0
 
Date/Time
EDT
Temp
°C
App
Temp
°C
Dew
Point
°C
Rel
Hum
%
Delta-T
°C
Wind Press
QNH
hPa
Press
MSL
hPa
Rain since
9am
mm
Dir  Spd
km/h
Gust
km/h
Spd
kts
Gust
kts
23/11:30pm 14.3 7.1 0.6 39 6.5 NW 28 32 15 17 1027.9 1019.3 0.0
23/11:00pm 13.2 7.7 0.9 43 5.8 NW 19 24 10 13 1028.5 1019.9 0.0
23/10:30pm 13.0 7.8 0.4 42 5.9 NW 17 22 9 12 1028.7 1020.1 0.0
23/10:00pm 14.0 8.8 -0.1 38 6.6 NW 17 20 9 11 1028.8 1020.3 0.0
23/09:30pm 14.3 8.7 0.2 38 6.7 NW 19 24 10 13 1028.6 1020.0 0.0
23/09:00pm 12.5 8.1 0.6 44 5.6 NW 13 17 7 9 1028.6 1020.0 0.0
23/08:30pm 13.2 8.9 0.9 43 5.9 WNW 13 15 7 8 1028.2 1019.6 0.0
23/08:00pm 14.9 10.6 0.7 38 6.8 W 13 19 7 10 1028.2 1019.6 0.0
23/07:30pm 16.3 10.8 0.4 34 7.7 WNW 19 28 10 15 1027.9 1019.3 0.0
23/07:00pm 17.7 11.1 -0.1 30 8.5 NW 24 35 13 19 1027.6 1019.0 0.0
23/06:30pm 18.3 10.9 -1.0 27 9.2 NW 28 39 15 21 1027.4 1018.8 0.0
23/06:00pm 18.9 12.2 -1.0 26 9.5 WNW 24 39 13 21 1027.3 1018.6 0.0
23/05:30pm 19.4 11.0 -1.1 25 9.8 NW 33 46 18 25 1027.0 1018.4 0.0
23/05:00pm 19.9 12.4 0.9 28 9.5 NW 30 48 16 26 1026.9 1018.3 0.0
23/04:30pm 19.7 10.5 1.2 29 9.3 NNW 39 57 21 31 1026.4 1017.7 0.0
23/04:00pm 19.8 9.4 2.2 31 9.0 NNW 46 67 25 36 1026.3 1017.6 0.0
23/03:30pm 19.7 10.9 3.4 34 8.5 NW 39 63 21 34 1026.2 1017.5 0.0
23/03:00pm 19.8 11.4 5.5 39 7.7 NW 39 59 21 32 1026.9 1018.3 0.0
23/02:38pm 18.7 9.8 3.3 36 8.0 NW 39 57 21 31 1026.7 1018.0 0.0
23/02:30pm 18.7 10.1 4.5 39 7.5 NW 39 56 21 30 1026.7 1018.0 0.0
23/02:00pm 18.6 10.7 4.4 39 7.5 NW 35 57 19 31 1026.8 1018.1 0.0
23/01:30pm 18.3 10.6 5.5 43 6.9 NW 35 56 19 30 1026.5 1017.9 0.0
23/01:00pm 18.7 11.0 5.5 42 7.1 NW 35 56 19 30 1026.9 1018.3 0.0
23/12:48pm 17.6 9.0 4.6 42 6.9 NNW 39 57 21 31 1026.5 1017.9 0.0
23/12:30pm 17.3 7.8 3.9 41 7.0 NNW 43 56 23 30 1026.5 1017.9 0.0
23/12:00pm 17.0 8.0 2.2 37 7.4 NNW 39 59 21 32 1026.7 1018.0 0.0
23/11:49am 17.0 8.1 3.0 39 7.1 NNW 39 57 21 31 1026.7 1018.0 0.0
23/11:30am 16.8 8.6 2.8 39 7.1 NNW 35 50 19 27 1026.7 1018.0 0.0
23/11:00am 16.6 8.5 3.3 41 6.8 NNW 35 54 19 29 1026.7 1018.0 0.0
23/10:36am 16.3 8.0 4.0 44 6.4 NNW 37 56 20 30 1026.5 1017.9 0.0
23/10:30am 16.0 7.2 3.4 43 6.4 NNW 39 54 21 29 1026.5 1017.9 0.0
23/10:17am 15.8 7.5 4.2 46 6.0 NNW 37 56 20 30 1026.5 1017.9 0.0
23/10:00am 15.2 6.7 5.1 51 5.3 NNW 39 52 21 28 1026.3 1017.6 0.0
23/09:40am 14.9 5.5 4.3 49 5.5 NNW 43 61 23 33 1025.8 1017.1 0.0
23/09:30am 14.6 5.3 5.9 56 4.6 NNW 44 57 24 31 1025.7 1017.0 0.0
23/09:00am 14.1 4.1 6.0 58 4.3 NNW 48 61 26 33 1025.2 1016.5 0.0
23/08:38am 13.6 3.5 7.4 66 3.4 NNW 50 69 27 37 1024.6 1015.9 0.0
23/08:30am 13.4 2.9 7.4 67 3.3 NNW 52 67 28 36 1024.7 1016.0 0.0
23/08:04am 13.1 3.4 7.3 68 3.1 NNW 48 67 26 36 1024.5 1015.7 0.0
23/08:00am 13.0 2.5 7.5 69 3.0 NNW 52 67 28 36 1024.3 1015.6 0.0
23/07:37am 13.2 2.7 7.4 68 3.2 NNW 52 72 28 39 1023.7 1015.0 0.0
23/07:30am 13.0 1.7 7.0 67 3.2 NNW 56 72 30 39 1023.9 1015.1 0.0
23/07:00am 13.2 2.2 7.0 66 3.3 NNW 54 74 29 40 1023.4 1014.6 0.0
23/06:30am 13.7 3.8 6.6 62 3.8 NNW 48 67 26 36 1023.3 1014.5 0.0
23/06:00am 13.7 2.0 6.1 60 4.0 NNW 57 83 31 45 1022.5 1013.7 0.0
23/05:30am 13.8 1.2 5.4 57 4.4 NNW 61 83 33 45 1022.3 1013.5 0.0
23/05:00am 13.8 0.5 4.1 52 4.9 NNW 63 85 34 46 1022.3 1013.5 0.0
23/04:30am 14.2 -0.3 3.7 49 5.3 NNW 69 87 37 47 1021.3 1012.5 0.0
23/04:00am 14.6 0.4 0.8 39 6.6 NNW 65 85 35 46 1021.4 1012.6 0.0
23/03:31am 14.7 -0.5 -0.6 35 7.1 NNW 69 87 37 47 1021.3 1012.5 0.0
23/03:30am 14.9 -0.5 -0.8 34 7.3 NNW 70 87 38 47 1021.2 1012.3 0.0
23/03:00am 15.1 -0.3 -0.6 34 7.3 NNW 70 89 38 48 1021.2 1012.3 0.0
23/02:30am 14.9 0.6 0.0 36 7.0 NNW 65 85 35 46 1021.8 1013.0 0.0
23/02:00am 14.8 2.1 0.6 38 6.8 NNW 57 80 31 43 1022.2 1013.4 0.0
23/01:38am 14.8 2.3 0.6 38 6.8 NNW 56 76 30 41 1022.8 1014.0 0.0
23/01:30am 14.4 3.0 0.6 39 6.6 NNW 50 67 27 36 1023.1 1014.4 0.0
23/01:17am 14.6 2.8 0.5 38 6.7 NNW 52 70 28 38 1023.4 1014.6 0.0
23/01:00am 14.6 2.4 0.1 37 6.8 NNW 54 69 29 37 1023.4 1014.6 0.0
23/12:48am 14.7 3.2 -0.2 36 7.0 NNW 50 69 27 37 1023.4 1014.6 0.0
23/12:30am 14.8 3.3 -0.1 36 7.0 NNW 50 63 27 34 1023.7 1015.0 0.0
23/12:20am 14.7 2.9 0.2 37 6.9 NNW 52 70 28 38 1023.7 1015.0 0.0
23/12:00am 14.6 4.6 0.8 39 6.6 NNW 43 54 23 29 1024.0 1015.2 0.0
 
Date/Time
EDT
Temp
°C
App
Temp
°C
Dew
Point
°C
Rel
Hum
%
Delta-T
°C
Wind Press
QNH
hPa
Press
MSL
hPa
Rain since
9am
mm
Dir  Spd
km/h
Gust
km/h
Spd
kts
Gust
kts
22/11:30pm 14.2 4.9 0.5 39 6.5 NNW 39 57 21 31 1024.7 1016.0 0.0
22/11:28pm 14.3 5.0 0.6 39 6.5 NNW 39 57 21 31 1024.5 1015.7 0.0
22/11:00pm 13.6 5.6 0.6 41 6.1 NNW 32 41 17 22 1025.0 1016.2 0.0
22/10:30pm 14.2 7.0 0.5 39 6.5 NNW 28 41 15 22 1025.4 1016.7 0.0
22/10:00pm 14.2 6.6 0.5 39 6.5 NNW 30 43 16 23 1025.6 1016.9 0.0
22/09:30pm 14.1 6.2 1.1 41 6.3 NNW 32 43 17 23 1025.3 1016.6 0.0
22/09:00pm 14.1 6.1 1.4 42 6.1 NNW 33 44 18 24 1024.8 1016.1 0.0
22/08:30pm 14.1 4.6 1.7 43 6.0 NW 41 52 22 28 1024.1 1015.4 0.0
22/08:00pm 14.3 3.5 2.2 44 5.9 NW 48 59 26 32 1023.3 1014.5 0.0
22/07:30pm 14.4 4.5 2.6 45 5.9 NNW 44 57 24 31 1022.9 1014.1 0.0
22/07:00pm 14.5 4.3 3.3 47 5.6 NNW 46 57 25 31 1023.1 1014.4 0.0
22/06:30pm 14.9 5.1 3.1 45 5.9 NW 44 59 24 32 1023.0 1014.2 0.0
22/06:00pm 15.0 4.4 2.9 44 6.1 NNW 48 61 26 33 1022.8 1014.0 0.0
22/05:51pm 15.3 6.1 3.5 45 6.0 NW 41 59 22 32 1023.0 1014.2 0.0

Latest Capital City Observations: Canberra | Sydney | Melbourne | Brisbane | Adelaide | Perth | Hobart | Darwin

Other Formats:

Comma delimited format used in spreadsheet applications
http://www.bom.gov.au/fwo/IDN60903/IDN60903.95909.axf

JavaScript Object Notation format (JSON) in row-major order
http://www.bom.gov.au/fwo/IDN60903/IDN60903.95909.json